sensor_id;sensor_type;location;lat;lon;timestamp;P1;durP1;ratioP1;P2;durP2;ratioP2
83398;SDS011;73326;43.228;0.106;2024-02-16T00:01:20;6.10;;;3.33;;
83398;SDS011;73326;43.228;0.106;2024-02-16T00:03:46;5.80;;;3.58;;
83398;SDS011;73326;43.228;0.106;2024-02-16T00:06:12;6.28;;;3.45;;
83398;SDS011;73326;43.228;0.106;2024-02-16T00:08:38;5.80;;;1.83;;
83398;SDS011;73326;43.228;0.106;2024-02-16T00:11:05;5.32;;;1.80;;
83398;SDS011;73326;43.228;0.106;2024-02-16T00:13:31;2.78;;;1.10;;
83398;SDS011;73326;43.228;0.106;2024-02-16T00:15:57;3.60;;;1.20;;
83398;SDS011;73326;43.228;0.106;2024-02-16T00:18:23;4.22;;;1.00;;
83398;SDS011;73326;43.228;0.106;2024-02-16T00:20:49;2.95;;;1.10;;
83398;SDS011;73326;43.228;0.106;2024-02-16T00:23:15;4.25;;;1.00;;
83398;SDS011;73326;43.228;0.106;2024-02-16T00:25:41;2.55;;;1.13;;
83398;SDS011;73326;43.228;0.106;2024-02-16T00:28:08;2.53;;;1.25;;
83398;SDS011;73326;43.228;0.106;2024-02-16T00:30:34;2.10;;;1.20;;
83398;SDS011;73326;43.228;0.106;2024-02-16T00:33:01;2.53;;;0.95;;
83398;SDS011;73326;43.228;0.106;2024-02-16T00:35:27;3.25;;;1.00;;
83398;SDS011;73326;43.228;0.106;2024-02-16T00:37:55;6.03;;;1.10;;
83398;SDS011;73326;43.228;0.106;2024-02-16T00:40:21;4.00;;;1.10;;
83398;SDS011;73326;43.228;0.106;2024-02-16T00:42:48;4.88;;;1.23;;
83398;SDS011;73326;43.228;0.106;2024-02-16T00:45:14;2.78;;;1.10;;
83398;SDS011;73326;43.228;0.106;2024-02-16T00:47:40;2.45;;;0.80;;
83398;SDS011;73326;43.228;0.106;2024-02-16T00:50:07;2.63;;;0.88;;
83398;SDS011;73326;43.228;0.106;2024-02-16T00:52:34;2.00;;;0.80;;
83398;SDS011;73326;43.228;0.106;2024-02-16T00:55:00;3.55;;;1.10;;
83398;SDS011;73326;43.228;0.106;2024-02-16T00:57:26;2.22;;;0.82;;
83398;SDS011;73326;43.228;0.106;2024-02-16T00:59:52;2.25;;;0.70;;
83398;SDS011;73326;43.228;0.106;2024-02-16T01:02:19;1.17;;;0.70;;
83398;SDS011;73326;43.228;0.106;2024-02-16T01:04:47;0.82;;;0.60;;
83398;SDS011;73326;43.228;0.106;2024-02-16T01:07:15;1.65;;;0.60;;
83398;SDS011;73326;43.228;0.106;2024-02-16T01:09:41;1.60;;;0.80;;
83398;SDS011;73326;43.228;0.106;2024-02-16T01:12:07;2.42;;;0.90;;
83398;SDS011;73326;43.228;0.106;2024-02-16T01:14:33;1.27;;;0.68;;
83398;SDS011;73326;43.228;0.106;2024-02-16T01:16:59;1.23;;;0.63;;
83398;SDS011;73326;43.228;0.106;2024-02-16T01:19:25;2.25;;;0.70;;
83398;SDS011;73326;43.228;0.106;2024-02-16T01:21:51;2.47;;;0.60;;
83398;SDS011;73326;43.228;0.106;2024-02-16T01:24:22;0.50;;;0.50;;
83398;SDS011;73326;43.228;0.106;2024-02-16T01:26:48;1.10;;;0.70;;
83398;SDS011;73326;43.228;0.106;2024-02-16T01:29:14;1.58;;;0.60;;
83398;SDS011;73326;43.228;0.106;2024-02-16T01:31:40;0.68;;;0.40;;
83398;SDS011;73326;43.228;0.106;2024-02-16T01:34:06;2.15;;;0.50;;
83398;SDS011;73326;43.228;0.106;2024-02-16T01:36:32;0.60;;;0.55;;
83398;SDS011;73326;43.228;0.106;2024-02-16T01:38:58;1.45;;;0.70;;
83398;SDS011;73326;43.228;0.106;2024-02-16T01:41:24;0.47;;;0.47;;
83398;SDS011;73326;43.228;0.106;2024-02-16T01:43:53;0.70;;;0.70;;
83398;SDS011;73326;43.228;0.106;2024-02-16T01:46:22;0.90;;;0.77;;
83398;SDS011;73326;43.228;0.106;2024-02-16T01:48:48;1.35;;;0.60;;
83398;SDS011;73326;43.228;0.106;2024-02-16T01:51:15;0.85;;;0.60;;
83398;SDS011;73326;43.228;0.106;2024-02-16T01:53:41;0.50;;;0.50;;
83398;SDS011;73326;43.228;0.106;2024-02-16T01:56:07;0.80;;;0.50;;
83398;SDS011;73326;43.228;0.106;2024-02-16T01:58:34;0.60;;;0.60;;
83398;SDS011;73326;43.228;0.106;2024-02-16T02:01:00;0.60;;;0.60;;
83398;SDS011;73326;43.228;0.106;2024-02-16T02:03:26;0.50;;;0.50;;
83398;SDS011;73326;43.228;0.106;2024-02-16T02:05:52;1.60;;;0.70;;
83398;SDS011;73326;43.228;0.106;2024-02-16T02:08:20;0.40;;;0.40;;
83398;SDS011;73326;43.228;0.106;2024-02-16T02:10:46;1.48;;;0.60;;
83398;SDS011;73326;43.228;0.106;2024-02-16T02:13:12;1.40;;;0.50;;
83398;SDS011;73326;43.228;0.106;2024-02-16T02:15:40;0.85;;;0.60;;
83398;SDS011;73326;43.228;0.106;2024-02-16T02:18:06;1.27;;;0.60;;
83398;SDS011;73326;43.228;0.106;2024-02-16T02:20:32;0.90;;;0.60;;
83398;SDS011;73326;43.228;0.106;2024-02-16T02:22:58;1.15;;;0.50;;
83398;SDS011;73326;43.228;0.106;2024-02-16T02:25:24;0.57;;;0.57;;
83398;SDS011;73326;43.228;0.106;2024-02-16T02:27:53;1.48;;;0.50;;
83398;SDS011;73326;43.228;0.106;2024-02-16T02:30:19;0.95;;;0.60;;
83398;SDS011;73326;43.228;0.106;2024-02-16T02:32:46;0.55;;;0.40;;
83398;SDS011;73326;43.228;0.106;2024-02-16T02:35:12;0.60;;;0.60;;
83398;SDS011;73326;43.228;0.106;2024-02-16T02:37:39;0.55;;;0.55;;
83398;SDS011;73326;43.228;0.106;2024-02-16T02:40:06;0.60;;;0.60;;
83398;SDS011;73326;43.228;0.106;2024-02-16T02:42:34;1.13;;;0.45;;
83398;SDS011;73326;43.228;0.106;2024-02-16T02:45:01;0.52;;;0.52;;
83398;SDS011;73326;43.228;0.106;2024-02-16T02:47:27;0.47;;;0.47;;
83398;SDS011;73326;43.228;0.106;2024-02-16T02:49:53;0.40;;;0.40;;
83398;SDS011;73326;43.228;0.106;2024-02-16T02:52:20;0.55;;;0.40;;
83398;SDS011;73326;43.228;0.106;2024-02-16T02:54:46;0.30;;;0.30;;
83398;SDS011;73326;43.228;0.106;2024-02-16T02:57:13;0.73;;;0.40;;
83398;SDS011;73326;43.228;0.106;2024-02-16T02:59:39;0.75;;;0.60;;
83398;SDS011;73326;43.228;0.106;2024-02-16T03:02:05;0.88;;;0.40;;
83398;SDS011;73326;43.228;0.106;2024-02-16T03:04:31;0.60;;;0.50;;
83398;SDS011;73326;43.228;0.106;2024-02-16T03:06:58;0.65;;;0.40;;
83398;SDS011;73326;43.228;0.106;2024-02-16T03:09:24;0.40;;;0.40;;
83398;SDS011;73326;43.228;0.106;2024-02-16T03:11:50;0.50;;;0.50;;
83398;SDS011;73326;43.228;0.106;2024-02-16T03:14:16;0.40;;;0.40;;
83398;SDS011;73326;43.228;0.106;2024-02-16T03:16:42;0.55;;;0.50;;
83398;SDS011;73326;43.228;0.106;2024-02-16T03:19:08;0.50;;;0.50;;
83398;SDS011;73326;43.228;0.106;2024-02-16T03:21:34;1.38;;;0.63;;
83398;SDS011;73326;43.228;0.106;2024-02-16T03:24:04;0.47;;;0.47;;
83398;SDS011;73326;43.228;0.106;2024-02-16T03:26:30;1.35;;;0.60;;
83398;SDS011;73326;43.228;0.106;2024-02-16T03:28:57;1.67;;;0.70;;
83398;SDS011;73326;43.228;0.106;2024-02-16T03:31:23;1.75;;;0.70;;
83398;SDS011;73326;43.228;0.106;2024-02-16T03:33:50;4.78;;;0.70;;
83398;SDS011;73326;43.228;0.106;2024-02-16T03:36:16;1.25;;;0.82;;
83398;SDS011;73326;43.228;0.106;2024-02-16T03:38:46;0.75;;;0.60;;
83398;SDS011;73326;43.228;0.106;2024-02-16T03:41:15;3.40;;;0.50;;
83398;SDS011;73326;43.228;0.106;2024-02-16T03:43:43;0.52;;;0.50;;
83398;SDS011;73326;43.228;0.106;2024-02-16T03:46:09;0.85;;;0.50;;
83398;SDS011;73326;43.228;0.106;2024-02-16T03:48:35;1.10;;;0.50;;
83398;SDS011;73326;43.228;0.106;2024-02-16T03:51:01;0.65;;;0.50;;
83398;SDS011;73326;43.228;0.106;2024-02-16T03:53:30;1.33;;;0.70;;
83398;SDS011;73326;43.228;0.106;2024-02-16T03:55:56;0.88;;;0.52;;
83398;SDS011;73326;43.228;0.106;2024-02-16T03:58:22;0.60;;;0.50;;
83398;SDS011;73326;43.228;0.106;2024-02-16T04:00:48;0.77;;;0.68;;
83398;SDS011;73326;43.228;0.106;2024-02-16T04:03:15;0.93;;;0.60;;
83398;SDS011;73326;43.228;0.106;2024-02-16T04:05:41;0.60;;;0.60;;
83398;SDS011;73326;43.228;0.106;2024-02-16T04:08:07;1.73;;;0.70;;
83398;SDS011;73326;43.228;0.106;2024-02-16T04:10:33;1.35;;;0.85;;
83398;SDS011;73326;43.228;0.106;2024-02-16T04:13:00;1.60;;;0.60;;
83398;SDS011;73326;43.228;0.106;2024-02-16T04:15:26;1.27;;;0.80;;
83398;SDS011;73326;43.228;0.106;2024-02-16T04:17:52;0.70;;;0.70;;
83398;SDS011;73326;43.228;0.106;2024-02-16T04:20:18;1.02;;;0.50;;
83398;SDS011;73326;43.228;0.106;2024-02-16T04:22:45;1.02;;;0.50;;
83398;SDS011;73326;43.228;0.106;2024-02-16T04:25:11;0.50;;;0.50;;
83398;SDS011;73326;43.228;0.106;2024-02-16T04:27:37;0.50;;;0.50;;
83398;SDS011;73326;43.228;0.106;2024-02-16T04:30:03;1.75;;;0.50;;
83398;SDS011;73326;43.228;0.106;2024-02-16T04:32:30;0.60;;;0.50;;
83398;SDS011;73326;43.228;0.106;2024-02-16T04:34:56;1.10;;;0.73;;
83398;SDS011;73326;43.228;0.106;2024-02-16T04:37:22;0.85;;;0.60;;
83398;SDS011;73326;43.228;0.106;2024-02-16T04:39:49;2.63;;;0.57;;
83398;SDS011;73326;43.228;0.106;2024-02-16T04:42:16;1.58;;;0.70;;
83398;SDS011;73326;43.228;0.106;2024-02-16T04:44:42;0.90;;;0.80;;
83398;SDS011;73326;43.228;0.106;2024-02-16T04:47:08;2.10;;;1.05;;
83398;SDS011;73326;43.228;0.106;2024-02-16T04:49:34;0.88;;;0.80;;
83398;SDS011;73326;43.228;0.106;2024-02-16T04:52:00;1.58;;;0.80;;
83398;SDS011;73326;43.228;0.106;2024-02-16T04:54:26;1.40;;;0.70;;
83398;SDS011;73326;43.228;0.106;2024-02-16T04:56:52;0.50;;;0.50;;
83398;SDS011;73326;43.228;0.106;2024-02-16T04:59:18;0.77;;;0.43;;
83398;SDS011;73326;43.228;0.106;2024-02-16T05:01:44;0.50;;;0.40;;
83398;SDS011;73326;43.228;0.106;2024-02-16T05:04:10;1.85;;;0.57;;
83398;SDS011;73326;43.228;0.106;2024-02-16T05:06:45;0.40;;;0.40;;
83398;SDS011;73326;43.228;0.106;2024-02-16T05:09:11;0.50;;;0.50;;
83398;SDS011;73326;43.228;0.106;2024-02-16T05:11:41;1.55;;;0.40;;
83398;SDS011;73326;43.228;0.106;2024-02-16T05:14:07;0.43;;;0.43;;
83398;SDS011;73326;43.228;0.106;2024-02-16T05:16:33;0.40;;;0.40;;
83398;SDS011;73326;43.228;0.106;2024-02-16T05:18:59;0.30;;;0.30;;
83398;SDS011;73326;43.228;0.106;2024-02-16T05:21:25;0.40;;;0.40;;
83398;SDS011;73326;43.228;0.106;2024-02-16T05:23:51;0.35;;;0.32;;
83398;SDS011;73326;43.228;0.106;2024-02-16T05:26:17;1.98;;;0.50;;
83398;SDS011;73326;43.228;0.106;2024-02-16T05:28:43;0.45;;;0.40;;
83398;SDS011;73326;43.228;0.106;2024-02-16T05:31:14;0.40;;;0.40;;
83398;SDS011;73326;43.228;0.106;2024-02-16T05:33:49;0.43;;;0.43;;
83398;SDS011;73326;43.228;0.106;2024-02-16T05:36:19;0.80;;;0.50;;
83398;SDS011;73326;43.228;0.106;2024-02-16T05:38:48;0.70;;;0.43;;
83398;SDS011;73326;43.228;0.106;2024-02-16T05:41:17;1.95;;;0.50;;
83398;SDS011;73326;43.228;0.106;2024-02-16T05:43:44;0.85;;;0.50;;
83398;SDS011;73326;43.228;0.106;2024-02-16T05:46:13;1.77;;;0.52;;
83398;SDS011;73326;43.228;0.106;2024-02-16T05:48:39;1.35;;;0.60;;
83398;SDS011;73326;43.228;0.106;2024-02-16T05:51:05;1.25;;;0.73;;
83398;SDS011;73326;43.228;0.106;2024-02-16T05:53:32;2.92;;;1.35;;
83398;SDS011;73326;43.228;0.106;2024-02-16T05:55:58;1.17;;;0.90;;
83398;SDS011;73326;43.228;0.106;2024-02-16T05:58:24;1.42;;;0.70;;
83398;SDS011;73326;43.228;0.106;2024-02-16T06:00:50;2.47;;;1.20;;
83398;SDS011;73326;43.228;0.106;2024-02-16T06:03:17;4.82;;;1.20;;
83398;SDS011;73326;43.228;0.106;2024-02-16T06:05:43;5.47;;;1.30;;
83398;SDS011;73326;43.228;0.106;2024-02-16T06:08:12;2.35;;;1.00;;
83398;SDS011;73326;43.228;0.106;2024-02-16T06:10:40;5.57;;;1.08;;
83398;SDS011;73326;43.228;0.106;2024-02-16T06:13:06;2.65;;;1.00;;
83398;SDS011;73326;43.228;0.106;2024-02-16T06:15:33;1.90;;;1.00;;
83398;SDS011;73326;43.228;0.106;2024-02-16T06:18:02;2.78;;;1.00;;
83398;SDS011;73326;43.228;0.106;2024-02-16T06:20:28;4.80;;;1.08;;
83398;SDS011;73326;43.228;0.106;2024-02-16T06:22:54;2.90;;;0.90;;
83398;SDS011;73326;43.228;0.106;2024-02-16T06:25:20;3.58;;;1.25;;
83398;SDS011;73326;43.228;0.106;2024-02-16T06:27:46;1.77;;;0.93;;
83398;SDS011;73326;43.228;0.106;2024-02-16T06:30:12;1.77;;;1.30;;
83398;SDS011;73326;43.228;0.106;2024-02-16T06:32:41;2.13;;;0.88;;
83398;SDS011;73326;43.228;0.106;2024-02-16T06:35:08;2.95;;;1.02;;
83398;SDS011;73326;43.228;0.106;2024-02-16T06:37:34;3.00;;;1.23;;
83398;SDS011;73326;43.228;0.106;2024-02-16T06:40:02;7.95;;;1.10;;
83398;SDS011;73326;43.228;0.106;2024-02-16T06:42:29;3.60;;;1.42;;
83398;SDS011;73326;43.228;0.106;2024-02-16T06:44:55;5.20;;;1.33;;
83398;SDS011;73326;43.228;0.106;2024-02-16T06:47:21;4.15;;;1.00;;
83398;SDS011;73326;43.228;0.106;2024-02-16T06:49:50;3.65;;;1.20;;
83398;SDS011;73326;43.228;0.106;2024-02-16T06:52:16;2.78;;;0.77;;
83398;SDS011;73326;43.228;0.106;2024-02-16T06:54:42;2.47;;;0.90;;
83398;SDS011;73326;43.228;0.106;2024-02-16T06:57:08;2.13;;;0.85;;
83398;SDS011;73326;43.228;0.106;2024-02-16T06:59:34;2.53;;;1.00;;
83398;SDS011;73326;43.228;0.106;2024-02-16T07:02:00;3.47;;;1.20;;
83398;SDS011;73326;43.228;0.106;2024-02-16T07:04:26;3.22;;;1.02;;
83398;SDS011;73326;43.228;0.106;2024-02-16T07:06:53;5.05;;;0.90;;
83398;SDS011;73326;43.228;0.106;2024-02-16T07:09:19;3.95;;;0.90;;
83398;SDS011;73326;43.228;0.106;2024-02-16T07:11:47;2.03;;;0.90;;
83398;SDS011;73326;43.228;0.106;2024-02-16T07:14:15;2.88;;;1.00;;
83398;SDS011;73326;43.228;0.106;2024-02-16T07:16:41;4.18;;;1.00;;
83398;SDS011;73326;43.228;0.106;2024-02-16T07:19:07;2.30;;;0.95;;
83398;SDS011;73326;43.228;0.106;2024-02-16T07:21:34;3.40;;;1.20;;
83398;SDS011;73326;43.228;0.106;2024-02-16T07:24:00;3.15;;;1.10;;
83398;SDS011;73326;43.228;0.106;2024-02-16T07:26:26;3.97;;;1.23;;
83398;SDS011;73326;43.228;0.106;2024-02-16T07:28:52;3.83;;;1.10;;
83398;SDS011;73326;43.228;0.106;2024-02-16T07:31:18;2.60;;;1.15;;
83398;SDS011;73326;43.228;0.106;2024-02-16T07:33:45;5.07;;;1.20;;
83398;SDS011;73326;43.228;0.106;2024-02-16T07:36:11;8.38;;;1.63;;
83398;SDS011;73326;43.228;0.106;2024-02-16T07:38:38;3.05;;;1.15;;
83398;SDS011;73326;43.228;0.106;2024-02-16T07:41:04;4.18;;;0.82;;
83398;SDS011;73326;43.228;0.106;2024-02-16T07:43:32;5.53;;;1.20;;
83398;SDS011;73326;43.228;0.106;2024-02-16T07:45:58;4.60;;;1.30;;
83398;SDS011;73326;43.228;0.106;2024-02-16T07:48:24;4.97;;;1.23;;
83398;SDS011;73326;43.228;0.106;2024-02-16T07:50:50;4.32;;;1.40;;
83398;SDS011;73326;43.228;0.106;2024-02-16T07:53:16;5.15;;;1.25;;
83398;SDS011;73326;43.228;0.106;2024-02-16T07:55:42;8.77;;;1.63;;
83398;SDS011;73326;43.228;0.106;2024-02-16T07:58:08;3.00;;;1.20;;
83398;SDS011;73326;43.228;0.106;2024-02-16T08:00:34;4.30;;;1.33;;
83398;SDS011;73326;43.228;0.106;2024-02-16T08:03:00;6.95;;;1.40;;
83398;SDS011;73326;43.228;0.106;2024-02-16T08:05:27;3.60;;;1.23;;
83398;SDS011;73326;43.228;0.106;2024-02-16T08:07:54;4.70;;;1.77;;
83398;SDS011;73326;43.228;0.106;2024-02-16T08:10:20;4.63;;;1.20;;
83398;SDS011;73326;43.228;0.106;2024-02-16T08:12:46;6.60;;;1.65;;
83398;SDS011;73326;43.228;0.106;2024-02-16T08:15:13;4.30;;;2.53;;
83398;SDS011;73326;43.228;0.106;2024-02-16T08:17:39;2.65;;;1.35;;
83398;SDS011;73326;43.228;0.106;2024-02-16T08:20:05;5.80;;;1.40;;
83398;SDS011;73326;43.228;0.106;2024-02-16T08:22:32;5.35;;;1.40;;
83398;SDS011;73326;43.228;0.106;2024-02-16T08:24:59;4.40;;;1.38;;
83398;SDS011;73326;43.228;0.106;2024-02-16T08:27:25;1.85;;;1.10;;
83398;SDS011;73326;43.228;0.106;2024-02-16T08:29:51;4.22;;;1.25;;
83398;SDS011;73326;43.228;0.106;2024-02-16T08:32:17;1.50;;;1.20;;
83398;SDS011;73326;43.228;0.106;2024-02-16T08:34:45;4.28;;;1.30;;
83398;SDS011;73326;43.228;0.106;2024-02-16T08:37:13;4.57;;;1.50;;
83398;SDS011;73326;43.228;0.106;2024-02-16T08:39:39;2.95;;;1.67;;
83398;SDS011;73326;43.228;0.106;2024-02-16T08:42:06;2.70;;;1.50;;
83398;SDS011;73326;43.228;0.106;2024-02-16T08:44:39;2.40;;;1.70;;
83398;SDS011;73326;43.228;0.106;2024-02-16T08:47:09;4.57;;;1.40;;
83398;SDS011;73326;43.228;0.106;2024-02-16T08:49:35;4.53;;;1.63;;
83398;SDS011;73326;43.228;0.106;2024-02-16T08:52:01;5.75;;;1.92;;
83398;SDS011;73326;43.228;0.106;2024-02-16T08:54:27;4.82;;;1.63;;
83398;SDS011;73326;43.228;0.106;2024-02-16T08:56:53;5.13;;;1.63;;
83398;SDS011;73326;43.228;0.106;2024-02-16T08:59:19;3.97;;;1.25;;
83398;SDS011;73326;43.228;0.106;2024-02-16T09:01:46;1.88;;;1.00;;
83398;SDS011;73326;43.228;0.106;2024-02-16T09:04:12;2.28;;;1.38;;
83398;SDS011;73326;43.228;0.106;2024-02-16T09:06:38;4.13;;;1.40;;
83398;SDS011;73326;43.228;0.106;2024-02-16T09:09:04;2.15;;;1.42;;
83398;SDS011;73326;43.228;0.106;2024-02-16T09:11:32;3.00;;;1.75;;
83398;SDS011;73326;43.228;0.106;2024-02-16T09:14:01;6.65;;;2.00;;
83398;SDS011;73326;43.228;0.106;2024-02-16T09:16:27;4.15;;;2.38;;
83398;SDS011;73326;43.228;0.106;2024-02-16T09:18:53;3.63;;;1.42;;
83398;SDS011;73326;43.228;0.106;2024-02-16T09:21:19;2.05;;;1.27;;
83398;SDS011;73326;43.228;0.106;2024-02-16T09:23:45;2.13;;;1.30;;
83398;SDS011;73326;43.228;0.106;2024-02-16T09:26:11;2.53;;;1.83;;
83398;SDS011;73326;43.228;0.106;2024-02-16T09:28:40;4.55;;;1.83;;
83398;SDS011;73326;43.228;0.106;2024-02-16T09:31:06;4.80;;;1.77;;
83398;SDS011;73326;43.228;0.106;2024-02-16T09:33:33;5.07;;;1.75;;
83398;SDS011;73326;43.228;0.106;2024-02-16T09:36:00;2.40;;;1.30;;
83398;SDS011;73326;43.228;0.106;2024-02-16T09:38:26;6.03;;;2.60;;
83398;SDS011;73326;43.228;0.106;2024-02-16T09:40:52;1.75;;;1.58;;
83398;SDS011;73326;43.228;0.106;2024-02-16T09:43:24;3.28;;;1.05;;
83398;SDS011;73326;43.228;0.106;2024-02-16T09:45:54;3.67;;;1.33;;
83398;SDS011;73326;43.228;0.106;2024-02-16T09:48:20;3.90;;;1.30;;
83398;SDS011;73326;43.228;0.106;2024-02-16T09:50:47;2.42;;;1.42;;
83398;SDS011;73326;43.228;0.106;2024-02-16T09:53:14;3.47;;;1.48;;
83398;SDS011;73326;43.228;0.106;2024-02-16T09:55:40;2.03;;;1.27;;
83398;SDS011;73326;43.228;0.106;2024-02-16T09:58:07;2.03;;;1.50;;
83398;SDS011;73326;43.228;0.106;2024-02-16T10:00:33;1.77;;;1.20;;
83398;SDS011;73326;43.228;0.106;2024-02-16T10:02:59;1.40;;;1.30;;
83398;SDS011;73326;43.228;0.106;2024-02-16T10:05:25;4.43;;;1.70;;
83398;SDS011;73326;43.228;0.106;2024-02-16T10:07:51;1.92;;;1.60;;
83398;SDS011;73326;43.228;0.106;2024-02-16T10:10:24;3.25;;;1.50;;
83398;SDS011;73326;43.228;0.106;2024-02-16T10:13:00;1.20;;;1.03;;
83398;SDS011;73326;43.228;0.106;2024-02-16T10:15:26;7.05;;;3.40;;
83398;SDS011;73326;43.228;0.106;2024-02-16T10:17:58;2.15;;;1.50;;
83398;SDS011;73326;43.228;0.106;2024-02-16T10:20:25;2.72;;;2.00;;
83398;SDS011;73326;43.228;0.106;2024-02-16T10:23:12;2.65;;;1.10;;
83398;SDS011;73326;43.228;0.106;2024-02-16T10:25:38;1.98;;;1.10;;
83398;SDS011;73326;43.228;0.106;2024-02-16T10:28:08;2.17;;;1.05;;
83398;SDS011;73326;43.228;0.106;2024-02-16T10:30:38;1.52;;;1.00;;
83398;SDS011;73326;43.228;0.106;2024-02-16T10:33:05;1.23;;;0.93;;
83398;SDS011;73326;43.228;0.106;2024-02-16T10:35:35;1.20;;;1.00;;
83398;SDS011;73326;43.228;0.106;2024-02-16T10:38:02;2.63;;;1.15;;
83398;SDS011;73326;43.228;0.106;2024-02-16T10:40:37;1.45;;;0.90;;
83398;SDS011;73326;43.228;0.106;2024-02-16T10:43:04;0.82;;;0.82;;
83398;SDS011;73326;43.228;0.106;2024-02-16T10:45:34;0.80;;;0.80;;
83398;SDS011;73326;43.228;0.106;2024-02-16T10:48:01;1.75;;;1.27;;
83398;SDS011;73326;43.228;0.106;2024-02-16T10:50:27;0.70;;;0.70;;
83398;SDS011;73326;43.228;0.106;2024-02-16T10:52:53;1.40;;;0.60;;
83398;SDS011;73326;43.228;0.106;2024-02-16T10:55:21;1.35;;;0.77;;
83398;SDS011;73326;43.228;0.106;2024-02-16T10:57:49;1.55;;;0.80;;
83398;SDS011;73326;43.228;0.106;2024-02-16T11:00:15;2.35;;;1.10;;
83398;SDS011;73326;43.228;0.106;2024-02-16T11:05:33;1.15;;;0.85;;
83398;SDS011;73326;43.228;0.106;2024-02-16T11:08:00;1.17;;;0.98;;
83398;SDS011;73326;43.228;0.106;2024-02-16T11:10:27;1.13;;;0.80;;
83398;SDS011;73326;43.228;0.106;2024-02-16T11:12:53;3.60;;;1.02;;
83398;SDS011;73326;43.228;0.106;2024-02-16T11:15:32;1.40;;;1.15;;
83398;SDS011;73326;43.228;0.106;2024-02-16T11:18:02;1.85;;;1.20;;
83398;SDS011;73326;43.228;0.106;2024-02-16T11:20:28;1.52;;;1.10;;
83398;SDS011;73326;43.228;0.106;2024-02-16T11:23:04;1.67;;;1.20;;
83398;SDS011;73326;43.228;0.106;2024-02-16T11:25:32;3.83;;;1.20;;
83398;SDS011;73326;43.228;0.106;2024-02-16T11:27:58;2.35;;;1.13;;
83398;SDS011;73326;43.228;0.106;2024-02-16T11:30:25;2.13;;;1.30;;
83398;SDS011;73326;43.228;0.106;2024-02-16T11:32:51;1.35;;;1.20;;
83398;SDS011;73326;43.228;0.106;2024-02-16T11:35:17;2.05;;;1.38;;
83398;SDS011;73326;43.228;0.106;2024-02-16T11:37:43;2.42;;;1.20;;
83398;SDS011;73326;43.228;0.106;2024-02-16T11:40:12;1.60;;;1.10;;
83398;SDS011;73326;43.228;0.106;2024-02-16T11:42:38;2.00;;;0.95;;
83398;SDS011;73326;43.228;0.106;2024-02-16T11:45:06;1.10;;;1.00;;
83398;SDS011;73326;43.228;0.106;2024-02-16T11:47:38;1.20;;;1.10;;
83398;SDS011;73326;43.228;0.106;2024-02-16T11:50:05;3.03;;;1.33;;
83398;SDS011;73326;43.228;0.106;2024-02-16T11:52:35;2.20;;;1.20;;
83398;SDS011;73326;43.228;0.106;2024-02-16T11:55:02;5.10;;;1.67;;
83398;SDS011;73326;43.228;0.106;2024-02-16T11:57:29;4.07;;;1.40;;
83398;SDS011;73326;43.228;0.106;2024-02-16T11:59:55;3.92;;;1.33;;
83398;SDS011;73326;43.228;0.106;2024-02-16T12:02:23;3.83;;;1.58;;
83398;SDS011;73326;43.228;0.106;2024-02-16T12:04:57;3.17;;;1.75;;
83398;SDS011;73326;43.228;0.106;2024-02-16T12:07:25;2.08;;;1.60;;
83398;SDS011;73326;43.228;0.106;2024-02-16T12:09:58;3.30;;;1.40;;
83398;SDS011;73326;43.228;0.106;2024-02-16T12:12:25;1.30;;;1.00;;
83398;SDS011;73326;43.228;0.106;2024-02-16T12:14:52;0.98;;;0.90;;
83398;SDS011;73326;43.228;0.106;2024-02-16T12:17:18;3.17;;;1.40;;
83398;SDS011;73326;43.228;0.106;2024-02-16T12:19:44;1.80;;;1.40;;
83398;SDS011;73326;43.228;0.106;2024-02-16T12:22:10;2.80;;;1.50;;
83398;SDS011;73326;43.228;0.106;2024-02-16T12:24:37;2.25;;;1.30;;
83398;SDS011;73326;43.228;0.106;2024-02-16T12:27:03;1.73;;;1.30;;
83398;SDS011;73326;43.228;0.106;2024-02-16T12:29:29;2.00;;;1.27;;
83398;SDS011;73326;43.228;0.106;2024-02-16T12:31:55;2.08;;;1.67;;
83398;SDS011;73326;43.228;0.106;2024-02-16T12:34:21;4.10;;;1.10;;
83398;SDS011;73326;43.228;0.106;2024-02-16T12:36:47;6.03;;;1.48;;
83398;SDS011;73326;43.228;0.106;2024-02-16T12:39:13;3.53;;;1.30;;
83398;SDS011;73326;43.228;0.106;2024-02-16T12:41:40;2.78;;;1.40;;
83398;SDS011;73326;43.228;0.106;2024-02-16T12:44:08;1.33;;;1.20;;
83398;SDS011;73326;43.228;0.106;2024-02-16T12:46:34;1.85;;;1.50;;
83398;SDS011;73326;43.228;0.106;2024-02-16T12:49:00;1.40;;;1.00;;
83398;SDS011;73326;43.228;0.106;2024-02-16T12:51:26;2.28;;;1.35;;
83398;SDS011;73326;43.228;0.106;2024-02-16T12:53:52;1.55;;;1.15;;
83398;SDS011;73326;43.228;0.106;2024-02-16T12:56:18;1.63;;;1.10;;
83398;SDS011;73326;43.228;0.106;2024-02-16T12:58:46;1.75;;;1.52;;
83398;SDS011;73326;43.228;0.106;2024-02-16T13:01:13;2.33;;;1.52;;
83398;SDS011;73326;43.228;0.106;2024-02-16T13:03:39;2.58;;;1.45;;
83398;SDS011;73326;43.228;0.106;2024-02-16T13:06:05;2.97;;;1.88;;
83398;SDS011;73326;43.228;0.106;2024-02-16T13:08:31;2.00;;;1.63;;
83398;SDS011;73326;43.228;0.106;2024-02-16T13:10:57;2.72;;;1.70;;
83398;SDS011;73326;43.228;0.106;2024-02-16T13:13:24;2.10;;;1.40;;
83398;SDS011;73326;43.228;0.106;2024-02-16T13:15:50;1.63;;;1.30;;
83398;SDS011;73326;43.228;0.106;2024-02-16T13:18:16;3.00;;;1.20;;
83398;SDS011;73326;43.228;0.106;2024-02-16T13:20:42;1.05;;;0.90;;
83398;SDS011;73326;43.228;0.106;2024-02-16T13:23:09;1.27;;;0.95;;
83398;SDS011;73326;43.228;0.106;2024-02-16T13:25:35;1.20;;;1.10;;
83398;SDS011;73326;43.228;0.106;2024-02-16T13:28:01;1.30;;;1.05;;
83398;SDS011;73326;43.228;0.106;2024-02-16T13:30:28;2.28;;;1.10;;
83398;SDS011;73326;43.228;0.106;2024-02-16T13:32:54;1.73;;;1.05;;
83398;SDS011;73326;43.228;0.106;2024-02-16T13:35:20;2.20;;;1.70;;
83398;SDS011;73326;43.228;0.106;2024-02-16T13:37:46;2.33;;;1.30;;
83398;SDS011;73326;43.228;0.106;2024-02-16T13:40:12;1.10;;;0.90;;
83398;SDS011;73326;43.228;0.106;2024-02-16T13:42:39;2.17;;;1.05;;
83398;SDS011;73326;43.228;0.106;2024-02-16T13:45:05;1.95;;;1.00;;
83398;SDS011;73326;43.228;0.106;2024-02-16T13:47:31;1.67;;;1.20;;
83398;SDS011;73326;43.228;0.106;2024-02-16T13:49:57;1.52;;;0.90;;
83398;SDS011;73326;43.228;0.106;2024-02-16T13:52:24;2.20;;;1.10;;
83398;SDS011;73326;43.228;0.106;2024-02-16T13:54:51;11.40;;;5.00;;
83398;SDS011;73326;43.228;0.106;2024-02-16T13:57:17;10.88;;;6.05;;
83398;SDS011;73326;43.228;0.106;2024-02-16T13:59:43;13.77;;;6.53;;
83398;SDS011;73326;43.228;0.106;2024-02-16T14:02:09;16.98;;;7.10;;
83398;SDS011;73326;43.228;0.106;2024-02-16T14:04:36;10.88;;;5.38;;
83398;SDS011;73326;43.228;0.106;2024-02-16T14:07:02;16.08;;;7.72;;
83398;SDS011;73326;43.228;0.106;2024-02-16T14:09:28;6.47;;;3.75;;
83398;SDS011;73326;43.228;0.106;2024-02-16T14:11:54;20.00;;;8.95;;
83398;SDS011;73326;43.228;0.106;2024-02-16T14:14:23;13.38;;;5.55;;
83398;SDS011;73326;43.228;0.106;2024-02-16T14:16:49;5.80;;;2.75;;
83398;SDS011;73326;43.228;0.106;2024-02-16T14:19:15;4.68;;;2.40;;
83398;SDS011;73326;43.228;0.106;2024-02-16T14:21:42;4.35;;;1.48;;
83398;SDS011;73326;43.228;0.106;2024-02-16T14:24:08;1.85;;;1.40;;
83398;SDS011;73326;43.228;0.106;2024-02-16T14:26:36;4.30;;;1.90;;
83398;SDS011;73326;43.228;0.106;2024-02-16T14:29:02;6.05;;;2.03;;
83398;SDS011;73326;43.228;0.106;2024-02-16T14:31:28;8.63;;;3.92;;
83398;SDS011;73326;43.228;0.106;2024-02-16T14:33:54;3.75;;;2.00;;
83398;SDS011;73326;43.228;0.106;2024-02-16T14:36:21;1.17;;;1.08;;
83398;SDS011;73326;43.228;0.106;2024-02-16T14:38:47;2.22;;;1.15;;
83398;SDS011;73326;43.228;0.106;2024-02-16T14:41:13;1.67;;;1.38;;
83398;SDS011;73326;43.228;0.106;2024-02-16T14:43:41;1.58;;;1.40;;
83398;SDS011;73326;43.228;0.106;2024-02-16T14:46:08;2.22;;;1.67;;
83398;SDS011;73326;43.228;0.106;2024-02-16T14:48:34;2.47;;;1.60;;